Latest Weather Observations for Casterton

IDV60801

Issued at 9:02 pm EDT Friday 19 December 2014 (issued every 30 minutes, with the page automatically refreshed every 10 minutes)

About weather observations | Map of weather stations | Latest weather observations for VIC | Other Formats
Station Details ID: 090182 Name: CASTERTON Lat: -37.58 Lon: 141.33 Height: 130.6 m
Data from the previous 72 hours. | See also: Recent months at Casterton
Date/Time
EDT
Temp
°C
App
Temp
°C
Dew
Point
Rel
Hum
%
Delta-T
°C
Wind Press
QNH
hPa
Press
MSL
hPa
Rain
since 9 am
mm
Dir
 
Spd
km/h
Gust
km/h
Spd
kts
Gust
kts
19/09:00pm 13.9 10.7 7.0 63 3.4 SSW 13 19 7 10 1020.1 - 0.0
19/08:30pm 15.3 10.9 6.6 56 4.3 S 19 22 10 12 1020.0 - 0.0
19/08:00pm 16.6 12.2 6.4 51 5.0 SSW 19 28 10 15 1019.8 - 0.0
19/07:30pm 18.0 13.6 6.5 47 5.7 SSW 19 28 10 15 1019.4 - 0.0
19/07:00pm 18.7 14.0 6.2 44 6.2 SW 20 30 11 16 1019.1 - 0.0
19/06:30pm 19.4 14.8 6.5 43 6.5 SW 20 30 11 16 1018.8 - 0.0
19/06:00pm 20.4 15.3 6.0 39 7.2 SW 22 35 12 19 1018.7 1018.4 0.0
19/05:30pm 20.0 14.8 5.6 39 7.2 SSW 22 35 12 19 1018.6 - 0.0
19/05:00pm 21.0 15.7 6.9 40 7.2 SSW 24 33 13 18 1018.5 - 0.0
19/04:30pm 21.7 16.1 7.2 39 7.5 WSW 26 37 14 20 1018.6 - 0.0
19/04:00pm 21.9 17.0 7.0 38 7.7 SW 22 37 12 20 1018.5 - 0.0
19/03:30pm 20.9 15.7 5.7 37 7.6 S 22 39 12 21 1018.4 - 0.0
19/03:00pm 20.6 15.8 5.8 38 7.4 SW 20 33 11 18 1018.5 1018.2 0.0
19/02:30pm 22.1 18.2 7.1 38 7.8 W 17 30 9 16 1018.6 - 0.0
19/02:00pm 19.8 14.1 6.5 42 6.7 WSW 26 30 14 16 1018.6 - 0.0
19/01:30pm 20.4 16.9 8.7 47 6.2 SW 17 22 9 12 1018.7 - 0.0
19/01:00pm 19.7 16.5 8.4 48 5.9 SW 15 22 8 12 1019.0 - 0.0
19/12:30pm 17.9 15.3 7.9 52 5.1 SW 11 19 6 10 1019.1 - 0.0
19/12:00pm 17.4 14.0 7.7 53 4.9 SW 15 22 8 12 1019.1 1018.9 0.0
19/11:30am 16.3 13.0 8.0 58 4.2 SW 15 20 8 11 1019.0 - 0.0
19/11:00am 17.0 13.8 8.4 57 4.4 SW 15 22 8 12 1019.1 - 0.0
19/10:30am 15.3 12.4 8.3 63 3.6 WSW 13 19 7 10 1019.1 - 0.0
19/10:00am 15.0 11.4 8.3 64 3.4 SSW 17 24 9 13 1019.0 - 0.0
19/09:30am 15.9 13.0 9.6 66 3.3 WSW 15 22 8 12 1018.9 - 0.0
19/09:00am 14.2 12.0 9.4 73 2.5 W 11 19 6 10 1018.6 1018.3 5.6
19/08:30am 12.9 10.9 10.1 83 1.5 W 11 13 6 7 1018.1 - 5.6
19/08:00am 11.1 10.2 10.8 98 0.2 WNW 6 9 3 5 1017.9 - 5.6
19/07:30am 9.3 7.4 9.2 99 0.0 NW 9 11 5 6 1017.6 - 5.6
19/07:00am 7.2 5.2 7.1 99 0.0 NW 7 9 4 5 1017.2 - 5.6
19/06:30am 7.5 6.9 7.4 99 0.0 CALM 0 0 0 0 1016.9 - 5.6
19/06:00am 7.1 5.6 7.0 99 0.0 WNW 4 6 2 3 1016.6 1016.3 5.6
19/05:30am 6.3 5.4 6.2 99 0.0 CALM 0 0 0 0 1016.3 - 5.6
19/05:00am 5.0 3.8 4.7 98 0.1 CALM 0 0 0 0 1016.2 - 5.6
19/04:30am 5.7 4.7 5.4 98 0.1 CALM 0 0 0 0 1015.9 - 5.6
19/04:00am 5.7 4.7 5.4 98 0.1 CALM 0 0 0 0 1015.8 - 5.6
19/03:30am 6.1 5.1 5.8 98 0.1 CALM 0 0 0 0 1015.8 - 5.6
19/03:00am 6.2 5.3 5.9 98 0.1 CALM 0 6 0 3 1015.6 1015.3 5.6
19/02:30am 6.5 4.5 6.2 98 0.1 W 6 6 3 3 1015.7 - 5.6
19/02:00am 7.1 5.2 6.8 98 0.1 W 6 7 3 4 1015.7 - 5.6
19/01:30am 7.5 5.5 7.2 98 0.1 W 7 9 4 5 1015.9 - 5.6
19/01:00am 7.7 5.4 7.4 98 0.1 W 9 11 5 6 1015.8 - 5.6
19/12:30am 8.3 6.5 8.0 98 0.1 W 7 9 4 5 1015.7 - 5.6
19/12:00am 8.8 7.0 7.9 94 0.4 W 7 9 4 5 1015.4 1015.1 5.6
 
Date/Time
EDT
Temp
°C
App
Temp
°C
Dew
Point
Rel
Hum
%
Delta-T
°C
Wind Press
QNH
hPa
Press
MSL
hPa
Rain
since 9 am
mm
Dir
 
Spd
km/h
Gust
km/h
Spd
kts
Gust
kts
18/11:30pm 9.5 7.4 8.4 93 0.5 W 9 13 5 7 1015.3 - 5.6
18/11:00pm 9.7 7.9 8.1 90 0.8 WSW 7 13 4 7 1015.2 - 5.6
18/10:30pm 10.3 8.1 7.7 84 1.3 WSW 9 11 5 6 1015.1 - 5.6
18/10:00pm 11.0 9.0 7.1 77 1.9 SW 7 9 4 5 1014.6 - 5.6
18/09:30pm 11.9 9.5 7.0 72 2.4 SW 9 13 5 7 1014.3 - 5.6
18/09:00pm 12.9 10.1 6.9 67 2.9 SW 11 17 6 9 1014.0 1013.7 5.6
18/08:30pm 13.9 9.8 6.3 60 3.7 SW 17 22 9 12 1013.7 - 5.6
18/08:00pm 15.3 10.5 5.8 53 4.6 SW 20 30 11 16 1013.1 - 5.6
18/07:30pm 16.5 10.2 5.5 48 5.3 SW 28 39 15 21 1012.4 - 5.6
18/07:00pm 17.1 11.2 7.7 54 4.8 SW 28 43 15 23 1011.8 - 5.6
18/06:31pm 17.1 11.1 7.2 52 5.0 SW 28 46 15 25 1011.2 - 5.6
18/06:30pm 17.0 11.0 7.1 52 5.0 SW 28 41 15 22 1011.2 - 5.6
18/06:00pm 16.6 9.6 6.1 50 5.1 WSW 32 43 17 23 1011.0 1010.7 5.6
18/05:35pm 17.2 11.0 7.8 54 4.8 WSW 30 48 16 26 1010.8 - 5.6
18/05:30pm 16.5 10.2 7.4 55 4.6 SW 30 43 16 23 1010.8 - 5.6
18/05:05pm 18.2 12.3 7.3 49 5.5 W 28 46 15 25 1010.3 - 5.6
18/05:00pm 19.2 13.5 8.5 50 5.6 W 28 44 15 24 1010.3 - 5.6
18/04:30pm 17.1 12.0 9.3 60 4.1 W 26 39 14 21 1010.3 - 5.6
18/04:16pm 16.4 11.0 9.6 64 3.6 WSW 28 46 15 25 1010.1 - 5.6
18/04:00pm 17.2 10.1 9.6 61 4.0 SW 37 48 20 26 1009.7 - 5.6
18/03:57pm 16.8 9.0 8.2 57 4.4 SW 39 52 21 28 1009.6 - 5.6
18/03:32pm 19.2 13.5 8.2 49 5.7 W 28 48 15 26 1009.0 - 5.6
18/03:30pm 19.0 14.1 8.4 50 5.5 W 24 48 13 26 1009.1 - 5.6
18/03:00pm 16.4 13.1 12.9 80 2.0 WSW 22 32 12 17 1009.0 1008.7 5.6
18/02:30pm 14.7 10.0 14.4 98 0.2 WSW 32 56 17 30 1009.2 - 5.6
18/02:22pm 14.5 9.7 11.8 84 1.5 SW 28 56 15 30 1009.1 - 4.8
18/02:00pm 17.3 13.1 11.1 67 3.4 W 24 37 13 20 1008.5 - 4.8
18/01:30pm 17.0 13.7 14.1 83 1.7 W 24 39 13 21 1008.2 - 4.8
18/01:02pm 14.8 10.5 13.3 91 0.8 W 28 56 15 30 1008.2 - 4.8
18/01:00pm 16.0 12.9 14.4 90 0.9 W 24 37 13 20 1008.0 - 4.6
18/12:30pm 15.6 13.5 15.3 98 0.2 WNW 20 32 11 17 1007.9 - 4.6
18/12:00pm 14.8 12.5 14.6 99 0.1 W 20 32 11 17 1007.8 1007.5 4.6
18/11:30am 14.8 11.3 14.5 98 0.2 W 26 39 14 21 1007.2 - 1.4
18/11:06am 15.3 10.3 11.1 76 2.3 WNW 28 46 15 25 1006.9 - 0.0
18/11:00am 18.2 13.8 10.3 60 4.2 NW 24 35 13 19 1006.5 - 0.0
18/10:30am 18.3 12.2 9.9 58 4.5 WNW 32 44 17 24 1006.9 - 0.0
18/10:21am 17.6 12.2 9.5 59 4.3 WNW 28 46 15 25 1007.0 - 0.0
18/10:00am 16.8 11.5 10.0 64 3.6 NW 28 39 15 21 1007.0 - 0.0
18/09:30am 15.5 11.2 10.9 74 2.5 NW 24 35 13 19 1007.0 - 0.0
18/09:00am 14.1 11.3 11.3 83 1.5 NW 17 28 9 15 1007.0 1006.7 0.0
18/08:30am 13.7 10.8 9.6 76 2.1 NNW 15 22 8 12 1006.6 - 0.0
18/08:00am 13.3 10.0 9.5 78 2.0 NNW 17 24 9 13 1006.4 - 0.0
18/07:30am 12.5 9.7 10.0 85 1.3 NNW 15 20 8 11 1006.3 - 0.0
18/07:00am 10.9 8.5 10.1 95 0.4 NNW 13 17 7 9 1006.0 - 0.0
18/06:30am 8.9 6.5 8.8 99 0.0 NW 11 15 6 8 1006.1 - 0.0
18/06:00am 5.7 3.0 5.4 98 0.1 NNW 9 11 5 6 1005.9 1005.6 0.0
18/05:30am 5.7 3.3 5.4 98 0.1 N 7 11 4 6 1005.6 - 0.0
18/05:00am 4.8 2.3 4.5 98 0.1 N 7 9 4 5 1005.7 - 0.0
18/04:30am 5.5 4.4 5.2 98 0.1 CALM 0 0 0 0 1005.5 - 0.0
18/04:00am 4.9 3.7 4.6 98 0.1 CALM 0 0 0 0 1005.6 - 0.0
18/03:30am 5.5 4.4 5.2 98 0.1 CALM 0 0 0 0 1005.9 - 0.0
18/03:00am 5.9 3.8 5.6 98 0.1 N 6 7 3 4 1006.1 1005.8 0.0
18/02:30am 6.7 4.2 6.4 98 0.1 NE 9 11 5 6 1006.3 - 0.0
18/02:00am 6.5 5.6 5.9 96 0.3 CALM 0 0 0 0 1006.7 - 0.0
18/01:30am 7.2 6.3 6.1 93 0.5 CALM 0 0 0 0 1007.1 - 0.0
18/01:00am 6.8 5.7 5.3 90 0.7 CALM 0 0 0 0 1007.4 - 0.0
18/12:30am 7.6 6.6 5.4 86 1.0 CALM 0 0 0 0 1007.4 - 0.0
18/12:00am 7.8 6.6 4.7 81 1.4 CALM 0 0 0 0 1007.5 1007.2 0.0
 
Date/Time
EDT
Temp
°C
App
Temp
°C
Dew
Point
Rel
Hum
%
Delta-T
°C
Wind Press
QNH
hPa
Press
MSL
hPa
Rain
since 9 am
mm
Dir
 
Spd
km/h
Gust
km/h
Spd
kts
Gust
kts
17/11:30pm 9.6 8.5 5.0 73 2.1 CALM 0 0 0 0 1007.3 - 0.0
17/11:00pm 9.9 8.3 4.5 69 2.4 S 2 6 1 3 1007.5 - 0.0
17/10:30pm 11.4 8.8 4.4 62 3.2 SSW 7 9 4 5 1007.6 - 0.0
17/10:00pm 12.7 9.8 4.9 59 3.6 SSW 9 11 5 6 1007.7 - 0.0
17/09:30pm 12.9 9.6 4.8 58 3.8 SW 11 13 6 7 1007.7 - 0.0
17/09:00pm 14.0 10.7 4.3 52 4.5 SW 11 15 6 8 1007.7 1007.4 0.0
17/08:30pm 16.7 12.2 4.4 44 5.8 SW 17 24 9 13 1007.6 - 0.0
17/08:00pm 18.0 13.5 4.2 40 6.6 SSW 17 22 9 12 1007.4 - 0.0
17/07:30pm 19.4 14.9 4.3 37 7.3 WSW 17 30 9 16 1007.2 - 0.0
17/07:00pm 20.2 15.8 4.7 36 7.6 WSW 17 26 9 14 1006.8 - 0.0
17/06:30pm 21.3 16.5 4.8 34 8.1 WSW 19 28 10 15 1006.7 - 0.0
17/06:00pm 22.0 16.8 5.4 34 8.3 W 22 32 12 17 1006.8 1006.5 0.0
17/05:30pm 20.9 16.1 4.5 34 8.0 W 19 28 10 15 1006.9 - 0.0
17/05:00pm 21.9 17.2 6.2 36 8.0 SW 20 30 11 16 1007.0 - 0.0
17/04:30pm 23.2 18.1 6.0 33 8.8 SW 22 32 12 17 1007.1 - 0.0
17/04:00pm 22.7 18.5 3.8 29 9.2 WSW 15 33 8 18 1007.3 - 0.0
17/03:30pm 21.6 16.7 5.1 34 8.2 W 20 33 11 18 1007.6 - 0.0
17/03:00pm 22.8 19.3 7.0 36 8.2 WSW 15 24 8 13 1007.7 1007.4 0.0
17/02:30pm 19.8 15.7 4.3 36 7.5 W 15 28 8 15 1008.1 - 0.0
17/02:00pm 20.0 15.1 4.9 37 7.4 WNW 20 30 11 16 1008.6 - 0.0
17/01:30pm 21.2 17.4 5.9 37 7.7 W 15 26 8 14 1008.7 - 0.0
17/01:00pm 20.2 15.5 5.1 37 7.4 W 19 26 10 14 1009.0 - 0.0
17/12:30pm 18.4 13.8 5.6 43 6.3 WNW 19 28 10 15 1009.2 - 0.0
17/12:00pm 18.9 14.8 4.3 38 7.0 NW 15 24 8 13 1009.3 1009.0 0.0
17/11:30am 16.9 11.7 5.5 47 5.5 W 22 32 12 17 1009.5 - 0.0
17/11:00am 17.0 12.3 5.0 45 5.8 WNW 19 26 10 14 1009.6 - 0.0
17/10:30am 18.4 14.4 6.6 46 5.9 WSW 17 24 9 13 1009.6 - 0.0
17/10:00am 16.2 12.8 5.8 50 5.0 W 13 26 7 14 1009.9 - 0.0
17/09:30am 15.9 12.3 6.6 54 4.6 WNW 15 24 8 13 1010.1 - 0.0
17/09:00am 14.7 12.0 7.5 62 3.6 NW 11 17 6 9 1010.1 1009.8 1.4
17/08:30am 12.8 10.6 7.9 72 2.4 NW 9 11 5 6 1010.0 - 1.4
17/08:00am 11.1 9.9 9.4 89 0.9 N 6 9 3 5 1009.7 - 1.4
17/07:30am 9.1 8.1 8.8 98 0.1 NNW 4 7 2 4 1009.5 - 1.4
17/07:00am 6.9 5.0 6.6 98 0.1 NW 6 7 3 4 1009.0 - 1.4
17/06:30am 6.5 5.6 6.2 98 0.1 CALM 0 0 0 0 1008.5 - 1.4
17/06:00am 6.6 5.0 6.3 98 0.1 NNW 4 7 2 4 1008.0 1007.7 1.4
17/05:30am 6.8 4.9 6.5 98 0.1 NNW 6 7 3 4 1007.7 - 1.4
17/05:00am 6.9 5.0 6.6 98 0.1 NW 6 7 3 4 1007.3 - 1.4
17/04:30am 6.7 4.5 6.4 98 0.1 NW 7 7 4 4 1007.1 - 1.4
17/04:00am 6.5 4.5 6.2 98 0.1 NW 6 9 3 5 1007.1 - 1.4
17/03:30am 6.1 4.4 5.8 98 0.1 NW 4 7 2 4 1007.0 - 1.4
17/03:00am 6.2 4.1 5.9 98 0.1 NW 6 7 3 4 1007.1 1006.8 1.4
17/02:30am 6.5 3.9 6.2 98 0.1 NW 9 11 5 6 1007.1 - 1.4
17/02:00am 7.3 4.9 6.9 97 0.2 WNW 9 11 5 6 1007.2 - 1.4
17/01:30am 8.5 6.0 8.2 98 0.1 W 11 13 6 7 1007.2 - 1.4
17/01:00am 6.8 4.3 6.5 98 0.1 WNW 9 11 5 6 1007.3 - 1.4
17/12:30am 6.9 4.8 6.6 98 0.1 WNW 7 9 4 5 1007.3 - 1.4
17/12:00am 7.2 4.6 6.3 94 0.4 NW 9 11 5 6 1007.2 1006.9 1.4
 
Date/Time
EDT
Temp
°C
App
Temp
°C
Dew
Point
Rel
Hum
%
Delta-T
°C
Wind Press
QNH
hPa
Press
MSL
hPa
Rain
since 9 am
mm
Dir
 
Spd
km/h
Gust
km/h
Spd
kts
Gust
kts
16/11:30pm 8.5 5.9 6.3 86 1.0 W 9 13 5 7 1007.0 - 1.4
16/11:00pm 10.1 7.3 7.0 81 1.5 W 11 15 6 8 1006.8 - 1.4
16/10:30pm 10.3 6.8 7.0 80 1.6 WSW 15 19 8 10 1006.7 - 1.4
16/10:00pm 10.5 7.6 6.3 75 2.0 W 11 15 6 8 1006.5 - 1.4
16/09:30pm 11.4 8.1 6.5 72 2.3 W 13 20 7 11 1006.0 - 1.4

Other Formats:

Comma delimited format used in spreadsheet applications
http://www.bom.gov.au/fwo/IDV60801/IDV60801.95825.axf

JavaScript Object Notation format (JSON) in row-major order
http://www.bom.gov.au/fwo/IDV60801/IDV60801.95825.json